Time;durP1;ratioP1;P1;durP2;ratioP2;P2;SDS_P1;SDS_P2;PMS_P1;PMS_P2;Temp;Humidity;BMP_temperature;BMP_pressure;BME280_temperature;BME280_humidity;BME280_pressure;Samples;Min_cycle;Max_cycle;Signal;HPM_P1;HPM_P2
2022/12/20 00:01:26;;;;;;;22.25;13.63;;;5.00;99.90;;;;;;5000933;28;20779;-85
2022/12/20 00:03:53;;;;;;;27.02;14.90;;;5.00;99.90;;;;;;4997113;28;20217;-83
2022/12/20 00:06:19;;;;;;;27.75;14.65;;;4.90;99.90;;;;;;4994946;28;20769;-82
2022/12/20 00:08:46;;;;;;;22.20;13.77;;;4.90;99.90;;;;;;4994789;28;20264;-85
2022/12/20 00:11:12;;;;;;;28.85;16.30;;;4.80;99.90;;;;;;5018257;28;20295;-86
2022/12/20 00:13:38;;;;;;;30.77;17.30;;;4.80;99.90;;;;;;5006505;28;20220;-86
2022/12/20 00:16:09;;;;;;;27.67;16.27;;;4.60;99.90;;;;;;4994131;28;20472;-85
2022/12/20 00:18:36;;;;;;;22.30;15.95;;;4.50;99.90;;;;;;4996416;28;20465;-81
2022/12/20 00:21:02;;;;;;;25.92;15.57;;;4.40;99.90;;;;;;4990237;28;20203;-84
2022/12/20 00:23:28;;;;;;;25.52;14.48;;;4.40;99.90;;;;;;4991226;28;20194;-82
2022/12/20 00:26:07;;;;;;;28.60;14.83;;;4.50;99.90;;;;;;5010558;28;20186;-82
2022/12/20 00:28:34;;;;;;;27.73;15.00;;;4.60;99.90;;;;;;5003291;28;20479;-85
2022/12/20 00:31:00;;;;;;;25.65;14.02;;;4.60;99.90;;;;;;4993148;28;20203;-86
2022/12/20 00:33:26;;;;;;;27.02;15.10;;;4.70;99.90;;;;;;5002803;28;20843;-81
2022/12/20 00:35:55;;;;;;;30.70;17.10;;;4.30;99.90;;;;;;4988617;28;20293;-80
2022/12/20 00:38:20;;;;;;;28.45;17.52;;;5.00;99.90;;;;;;4988061;28;20271;-82
2022/12/20 00:40:46;;;;;;;23.60;14.27;;;;;;;;;;4988088;28;21579;-83
2022/12/20 00:43:12;;;;;;;23.40;14.50;;;4.70;99.90;;;;;;4986789;28;20201;-81
2022/12/20 00:45:38;;;;;;;24.77;16.13;;;;;;;;;;4991373;28;20436;-80
2022/12/20 00:48:04;;;;;;;31.13;15.40;;;4.60;99.90;;;;;;4990575;28;20206;-83
2022/12/20 00:50:30;;;;;;;21.98;14.73;;;4.70;99.90;;;;;;4996107;28;20547;-80
2022/12/20 00:52:55;;;;;;;23.60;14.77;;;4.80;99.90;;;;;;4989844;28;20240;-84
2022/12/20 00:55:21;;;;;;;23.63;14.07;;;4.70;99.90;;;;;;4996316;28;20194;-81
2022/12/20 00:57:46;;;;;;;19.33;13.10;;;4.80;99.90;;;;;;4996742;28;20249;-80
2022/12/20 01:00:12;;;;;;;23.07;13.73;;;4.60;99.90;;;;;;5013797;28;20238;-84
2022/12/20 01:02:38;;;;;;;27.20;15.00;;;4.50;99.90;;;;;;5027045;28;20183;-83
2022/12/20 01:05:03;;;;;;;24.53;15.70;;;4.60;99.90;;;;;;5034838;28;20433;-86
2022/12/20 01:07:29;;;;;;;25.07;14.00;;;4.60;99.90;;;;;;5002345;28;20199;-80
2022/12/20 01:09:54;;;;;;;34.17;17.47;;;4.70;99.90;;;;;;5009155;28;20464;-82
2022/12/20 01:12:20;;;;;;;28.67;14.17;;;;;;;;;;5000401;28;20195;-81
2022/12/20 01:14:46;;;;;;;23.87;14.87;;;;;;;;;;4995938;28;20256;-82
2022/12/20 01:17:12;;;;;;;28.23;15.90;;;4.70;99.90;;;;;;4994431;28;20471;-81
2022/12/20 01:19:38;;;;;;;25.97;15.77;;;4.70;99.90;;;;;;4993099;28;20473;-86
2022/12/20 01:22:04;;;;;;;27.02;16.08;;;4.60;99.90;;;;;;5006554;28;20205;-85
2022/12/20 01:24:30;;;;;;;24.23;14.77;;;;;;;;;;4992523;28;20187;-85
2022/12/20 01:26:56;;;;;;;33.67;16.63;;;4.50;99.90;;;;;;4992766;28;20191;-83
2022/12/20 01:29:21;;;;;;;26.37;15.43;;;4.60;99.90;;;;;;4986669;28;20190;-84
2022/12/20 01:31:47;;;;;;;28.67;16.47;;;;;;;;;;4989729;28;20293;-83
2022/12/20 01:34:13;;;;;;;27.85;15.52;;;4.50;99.90;;;;;;4985199;28;20191;-81
2022/12/20 01:36:38;;;;;;;25.40;14.27;;;4.60;99.90;;;;;;4982706;28;21231;-83
2022/12/20 01:39:07;;;;;;;25.93;14.90;;;4.60;99.90;;;;;;4984361;28;20228;-82
2022/12/20 01:41:34;;;;;;;26.50;14.60;;;4.60;99.90;;;;;;4987890;28;22390;-80
2022/12/20 01:44:26;;;;;;;27.13;15.90;;;4.60;99.90;;;;;;4986578;28;20196;-83
2022/12/20 01:46:52;;;;;;;27.30;14.88;;;4.80;99.90;;;;;;4983805;28;20194;-84
2022/12/20 01:49:19;;;;;;;31.20;16.88;;;4.80;99.90;;;;;;4986710;28;20191;-83
2022/12/20 01:51:52;;;;;;;26.13;15.30;;;4.90;99.90;;;;;;4982340;28;20225;-80
2022/12/20 01:54:22;;;;;;;26.85;16.65;;;5.00;99.90;;;;;;4988174;28;20190;-80
2022/12/20 01:57:02;;;;;;;27.38;14.13;;;5.00;99.90;;;;;;4997359;28;20202;-83
2022/12/20 01:59:31;;;;;;;30.85;16.20;;;4.90;99.90;;;;;;4995351;28;20569;-83
2022/12/20 02:02:00;;;;;;;22.52;14.05;;;4.70;99.90;;;;;;4986959;28;20222;-85
2022/12/20 02:04:26;;;;;;;30.80;15.60;;;4.70;99.90;;;;;;5002002;28;20201;-80
2022/12/20 02:06:51;;;;;;;22.03;13.80;;;4.80;99.90;;;;;;4988330;28;20216;-82
2022/12/20 02:09:17;;;;;;;24.63;14.03;;;4.90;99.90;;;;;;4992990;28;20970;-79
2022/12/20 02:12:07;;;;;;;26.63;13.80;;;5.00;99.90;;;;;;4988839;28;20210;-83
2022/12/20 02:14:58;;;;;;;24.80;13.30;;;4.80;99.90;;;;;;4991278;28;20186;-82
2022/12/20 02:17:39;;;;;;;21.42;13.20;;;4.80;99.90;;;;;;4993007;28;20218;-79
2022/12/20 02:20:29;;;;;;;28.35;15.55;;;4.80;99.90;;;;;;4995163;28;20202;-82
2022/12/20 02:23:37;;;;;;;26.42;15.20;;;4.70;99.90;;;;;;5007412;28;20755;-83
2022/12/20 02:26:29;;;;;;;25.70;15.05;;;4.60;99.90;;;;;;4994654;28;20186;-85
2022/12/20 02:29:32;;;;;;;24.08;15.45;;;4.60;99.90;;;;;;4988949;28;20187;-82
2022/12/20 02:32:18;;;;;;;31.05;15.43;;;4.70;99.90;;;;;;4989628;28;20202;-83
2022/12/20 02:34:45;;;;;;;22.60;13.90;;;4.80;99.90;;;;;;4983389;28;22549;-81
2022/12/20 02:37:11;;;;;;;30.25;16.30;;;4.90;99.90;;;;;;5003418;28;20206;-82
2022/12/20 02:39:39;;;;;;;39.20;18.90;;;5.00;99.90;;;;;;4984964;28;20189;-84
2022/12/20 02:42:10;;;;;;;30.75;17.77;;;5.00;99.90;;;;;;4986487;28;20285;-79
2022/12/20 02:47:54;;;;;;;25.08;13.63;;;5.00;99.90;;;;;;4987399;28;20213;-83
2022/12/20 02:50:30;;;;;;;28.60;14.93;;;4.90;99.90;;;;;;4989422;28;20242;-81
2022/12/20 02:52:56;;;;;;;22.50;13.70;;;4.90;99.90;;;;;;4988348;28;20179;-85
2022/12/20 02:55:46;;;;;;;24.83;15.07;;;4.80;99.90;;;;;;4984197;28;20240;-79
2022/12/20 02:58:40;;;;;;;24.65;15.52;;;4.70;99.90;;;;;;4986366;28;20223;-85
2022/12/20 03:01:11;;;;;;;29.73;13.93;;;4.60;99.90;;;;;;4995034;28;20268;-82
2022/12/20 03:03:36;;;;;;;23.50;14.90;;;4.70;99.90;;;;;;4993380;28;20195;-86
2022/12/20 03:06:03;;;;;;;33.43;18.17;;;4.70;99.90;;;;;;4995195;28;20233;-85
2022/12/20 03:08:29;;;;;;;22.50;12.55;;;4.80;99.90;;;;;;4995902;28;20214;-84
2022/12/20 03:10:55;;;;;;;27.23;15.00;;;;;;;;;;4996067;28;20248;-81
2022/12/20 03:13:22;;;;;;;14.07;7.72;;;5.00;99.90;;;;;;5010703;28;20422;-78
2022/12/20 03:15:48;;;;;;;17.77;10.55;;;5.20;99.90;;;;;;5018318;28;20205;-81
2022/12/20 03:18:14;;;;;;;10.47;6.67;;;;;;;;;;5001219;28;20195;-84
2022/12/20 03:20:40;;;;;;;20.27;12.53;;;5.50;99.90;;;;;;5001523;28;20557;-85
2022/12/20 03:23:07;;;;;;;21.08;12.20;;;5.30;99.90;;;;;;4995118;28;20469;-81
2022/12/20 03:25:33;;;;;;;28.08;15.82;;;4.90;99.90;;;;;;5014263;28;20737;-83
2022/12/20 03:27:59;;;;;;;25.77;15.63;;;;;;;;;;4993010;28;20190;-81
2022/12/20 03:30:24;;;;;;;28.55;13.80;;;4.40;99.90;;;;;;4993815;28;20543;-82
2022/12/20 03:32:50;;;;;;;24.70;14.33;;;;;;;;;;4984802;28;20187;-80
2022/12/20 03:35:16;;;;;;;25.63;15.50;;;4.30;99.90;;;;;;4992331;28;20281;-78
2022/12/20 03:37:42;;;;;;;22.43;14.30;;;;;;;;;;5001536;28;20490;-84
2022/12/20 03:40:08;;;;;;;21.10;12.40;;;4.30;99.90;;;;;;4985317;28;20206;-84
2022/12/20 03:42:35;;;;;;;27.55;13.15;;;4.20;99.90;;;;;;5010159;28;20433;-82
2022/12/20 03:45:00;;;;;;;24.77;14.35;;;4.20;99.90;;;;;;5003852;28;20266;-81
2022/12/20 03:47:26;;;;;;;27.13;14.30;;;;;;;;;;4984625;28;20196;-82
2022/12/20 03:49:52;;;;;;;25.43;14.40;;;;;;;;;;4990571;28;20182;-85
2022/12/20 03:52:18;;;;;;;22.20;14.50;;;;;;;;;;4994845;28;20430;-80
2022/12/20 03:54:44;;;;;;;24.60;13.73;;;4.00;99.90;;;;;;4994306;28;20436;-84
2022/12/20 03:57:10;;;;;;;28.90;14.00;;;4.10;99.90;;;;;;5005974;28;20614;-80
2022/12/20 03:59:35;;;;;;;22.83;14.50;;;;;;;;;;4994186;28;20183;-83
2022/12/20 04:02:02;;;;;;;24.60;13.30;;;4.30;99.90;;;;;;4993193;28;20205;-83
2022/12/20 04:04:28;;;;;;;23.73;13.90;;;4.30;99.90;;;;;;4998607;28;20503;-80
2022/12/20 04:06:54;;;;;;;21.63;13.63;;;4.10;99.90;;;;;;4988309;28;20183;-83
2022/12/20 04:09:19;;;;;;;21.77;14.60;;;4.10;99.90;;;;;;4993896;28;20192;-83
2022/12/20 04:11:45;;;;;;;20.53;13.60;;;;;;;;;;5011577;28;20280;-84
2022/12/20 04:14:11;;;;;;;24.70;13.90;;;;;;;;;;4990532;28;20233;-81
2022/12/20 04:16:37;;;;;;;21.50;13.10;;;;;;;;;;4988306;28;20501;-86
2022/12/20 04:19:03;;;;;;;25.58;14.23;;;;;;;;;;4988197;28;20437;-83
2022/12/20 04:21:31;;;;;;;24.10;13.77;;;4.00;99.90;;;;;;4987551;28;20199;-81
2022/12/20 04:23:58;;;;;;;18.35;12.20;;;4.20;99.90;;;;;;5006486;28;20182;-84
2022/12/20 04:26:24;;;;;;;29.42;18.85;;;4.10;99.90;;;;;;5000235;28;20182;-82
2022/12/20 04:28:50;;;;;;;23.10;15.13;;;;;;;;;;4997678;28;20203;-84
2022/12/20 04:31:15;;;;;;;25.20;15.67;;;4.40;99.90;;;;;;4985040;28;20489;-83
2022/12/20 04:33:42;;;;;;;21.13;13.87;;;;;;;;;;4981191;28;20697;-80
2022/12/20 04:36:08;;;;;;;20.00;12.20;;;4.50;99.90;;;;;;4981082;28;20249;-83
2022/12/20 04:38:34;;;;;;;28.00;13.98;;;4.50;99.90;;;;;;4981801;28;20676;-83
2022/12/20 04:40:59;;;;;;;27.07;13.47;;;4.60;99.90;;;;;;4987003;28;20298;-85
2022/12/20 04:43:25;;;;;;;23.00;12.83;;;;;;;;;;4994825;28;20443;-82
2022/12/20 04:45:55;;;;;;;18.45;12.27;;;4.50;99.90;;;;;;4985739;28;21616;-81
2022/12/20 04:48:21;;;;;;;24.25;12.57;;;4.40;99.90;;;;;;4983736;28;22306;-83
2022/12/20 04:50:48;;;;;;;20.83;12.70;;;4.40;99.90;;;;;;5001975;28;21249;-83
2022/12/20 04:55:58;;;;;;;22.33;13.95;;;4.30;99.90;;;;;;4988637;28;20186;-80
2022/12/20 04:58:24;;;;;;;23.07;14.47;;;4.20;99.90;;;;;;4991376;28;20182;-83
2022/12/20 05:00:51;;;;;;;19.88;12.68;;;4.20;99.90;;;;;;4990464;28;20206;-83
2022/12/20 05:03:20;;;;;;;21.20;13.68;;;4.10;99.90;;;;;;4991143;28;20191;-82
2022/12/20 05:05:46;;;;;;;23.02;13.23;;;4.10;99.90;;;;;;4984896;28;20191;-82
2022/12/20 05:08:11;;;;;;;22.67;13.70;;;4.10;99.90;;;;;;4989503;28;20254;-83
2022/12/20 05:10:37;;;;;;;21.10;12.60;;;4.20;99.90;;;;;;4989005;28;20217;-80
2022/12/20 05:13:03;;;;;;;24.27;13.00;;;4.30;99.90;;;;;;4988739;28;20440;-80
2022/12/20 05:15:29;;;;;;;19.73;11.00;;;4.40;99.90;;;;;;4988797;28;20334;-83
2022/12/20 05:17:58;;;;;;;19.73;12.20;;;4.50;99.90;;;;;;4986340;28;20560;-81
2022/12/20 05:20:26;;;;;;;18.90;13.32;;;4.60;99.90;;;;;;4988076;28;21453;-81
2022/12/20 05:28:23;;;;;;;23.17;12.75;;;4.40;99.90;;;;;;5003653;28;20595;-81
2022/12/20 05:30:48;;;;;;;20.50;12.70;;;4.30;99.90;;;;;;4992936;28;20622;-82
2022/12/20 05:33:14;;;;;;;21.50;13.47;;;4.20;99.90;;;;;;5000276;28;20731;-80
2022/12/20 05:35:40;;;;;;;24.33;13.33;;;;;;;;;;4996248;28;20206;-80
2022/12/20 05:38:06;;;;;;;19.27;12.77;;;4.20;99.90;;;;;;4995054;28;20218;-83
2022/12/20 05:40:32;;;;;;;23.20;11.57;;;;;;;;;;4988203;28;20554;-80
2022/12/20 05:42:57;;;;;;;25.50;13.07;;;;;;;;;;4989256;28;20265;-82
2022/12/20 05:45:23;;;;;;;21.67;12.90;;;4.50;99.90;;;;;;4992957;28;20537;-81
2022/12/20 05:47:49;;;;;;;24.17;13.50;;;4.50;99.90;;;;;;4992552;28;20445;-82
2022/12/20 05:50:16;;;;;;;19.87;12.87;;;4.50;99.90;;;;;;4991911;28;20207;-83
2022/12/20 05:52:41;;;;;;;23.95;13.25;;;4.50;99.90;;;;;;4993053;28;20650;-81
2022/12/20 05:55:07;;;;;;;28.00;14.30;;;4.60;99.90;;;;;;4994982;28;20197;-82
2022/12/20 05:57:33;;;;;;;21.90;14.10;;;4.70;99.90;;;;;;4988170;28;20211;-80
2022/12/20 05:59:58;;;;;;;28.00;14.83;;;4.80;99.90;;;;;;4992242;28;20594;-81
2022/12/20 06:02:25;;;;;;;20.00;13.53;;;4.80;99.90;;;;;;4995045;28;20199;-83
2022/12/20 06:04:51;;;;;;;23.55;13.45;;;;;;;;;;5000596;28;20429;-85
2022/12/20 06:07:18;;;;;;;22.88;11.98;;;4.70;99.90;;;;;;4994917;28;20613;-81
2022/12/20 06:09:43;;;;;;;18.80;11.75;;;4.50;99.90;;;;;;5008082;28;20218;-83
2022/12/20 06:12:09;;;;;;;19.33;11.10;;;4.50;99.90;;;;;;4994738;28;20200;-81
2022/12/20 06:14:35;;;;;;;16.67;11.80;;;4.40;99.90;;;;;;4994606;28;20197;-85
2022/12/20 06:17:01;;;;;;;18.90;12.50;;;4.40;99.90;;;;;;4993357;28;20206;-81
2022/12/20 06:19:26;;;;;;;17.33;11.60;;;4.30;99.90;;;;;;5010212;28;21028;-81
2022/12/20 06:21:52;;;;;;;24.60;11.70;;;4.20;99.90;;;;;;5016980;28;20206;-81
2022/12/20 06:24:18;;;;;;;24.53;12.33;;;;;;;;;;4996720;28;20190;-81
2022/12/20 06:26:44;;;;;;;17.80;11.88;;;4.20;99.90;;;;;;4998882;28;20272;-80
2022/12/20 06:29:12;;;;;;;21.20;12.90;;;4.40;99.90;;;;;;4993925;28;20230;-83
2022/12/20 06:31:39;;;;;;;26.52;16.13;;;4.50;99.90;;;;;;4994761;28;20483;-82
2022/12/20 06:34:05;;;;;;;27.20;15.90;;;4.30;99.90;;;;;;5015758;28;20576;-79
2022/12/20 06:36:30;;;;;;;17.30;12.10;;;4.10;99.90;;;;;;5005358;28;20287;-82
2022/12/20 06:38:56;;;;;;;21.13;9.10;;;4.10;99.90;;;;;;5015939;28;20167;-82
2022/12/20 06:41:21;;;;;;;19.80;11.97;;;4.10;99.90;;;;;;4995917;28;20201;-82
2022/12/20 06:43:47;;;;;;;19.00;11.60;;;4.20;99.90;;;;;;5000112;28;20187;-81
2022/12/20 06:46:12;;;;;;;23.93;15.40;;;4.30;99.90;;;;;;5002417;28;20279;-78
2022/12/20 06:48:38;;;;;;;22.30;15.17;;;4.40;99.90;;;;;;4996654;28;20254;-86
2022/12/20 06:51:03;;;;;;;18.30;12.40;;;4.50;99.90;;;;;;5004928;28;20212;-83
2022/12/20 06:53:29;;;;;;;23.10;13.77;;;;;;;;;;4995233;28;20186;-81
2022/12/20 06:55:55;;;;;;;20.97;12.40;;;4.40;99.90;;;;;;5002927;28;20187;-79
2022/12/20 06:58:21;;;;;;;21.10;12.67;;;;;;;;;;4993737;28;20441;-82
2022/12/20 07:00:47;;;;;;;19.15;11.60;;;4.50;99.90;;;;;;4995939;28;20958;-83
2022/12/20 07:03:13;;;;;;;19.80;12.05;;;4.60;99.90;;;;;;4995516;28;20648;-83
2022/12/20 07:05:40;;;;;;;23.90;13.13;;;4.60;99.90;;;;;;4993624;28;20194;-81
2022/12/20 07:08:06;;;;;;;22.48;12.70;;;4.60;99.90;;;;;;4992215;28;20187;-80
2022/12/20 07:10:36;;;;;;;46.10;19.80;;;4.80;99.90;;;;;;5012206;28;20248;-83
2022/12/20 07:13:02;;;;;;;31.60;18.88;;;5.00;99.90;;;;;;4994917;28;20441;-83
2022/12/20 07:15:27;;;;;;;18.10;11.40;;;5.00;99.90;;;;;;4993279;28;20303;-81
2022/12/20 07:17:53;;;;;;;24.17;12.73;;;5.00;99.90;;;;;;4999858;28;20552;-79
2022/12/20 07:20:19;;;;;;;21.60;11.60;;;;;;;;;;5001377;28;20206;-81
2022/12/20 07:22:46;;;;;;;26.63;11.77;;;4.90;99.90;;;;;;4996221;28;20213;-81
2022/12/20 07:25:12;;;;;;;22.55;12.18;;;4.80;99.90;;;;;;4995604;28;20425;-84
2022/12/20 07:27:38;;;;;;;19.97;12.50;;;;;;;;;;4993880;28;20240;-84
2022/12/20 07:30:04;;;;;;;24.00;13.15;;;4.60;99.90;;;;;;5016324;28;20190;-85
2022/12/20 07:32:30;;;;;;;21.80;11.48;;;4.50;99.90;;;;;;5000943;28;20187;-81
2022/12/20 07:34:55;;;;;;;16.57;11.07;;;4.50;99.90;;;;;;5014755;28;20179;-80
2022/12/20 07:37:21;;;;;;;14.73;11.20;;;4.60;99.90;;;;;;4989708;28;20203;-80
2022/12/20 07:39:47;;;;;;;18.27;10.93;;;;;;;;;;5001224;28;20740;-82
2022/12/20 07:42:12;;;;;;;16.70;11.63;;;4.90;99.90;;;;;;4994973;28;20179;-84
2022/12/20 07:44:38;;;;;;;16.70;10.80;;;;;;;;;;4994160;28;20439;-84
2022/12/20 07:47:04;;;;;;;19.20;11.47;;;4.90;99.90;;;;;;4991966;28;20183;-83
2022/12/20 07:49:29;;;;;;;14.47;9.80;;;5.10;99.90;;;;;;4994263;28;20448;-82
2022/12/20 07:51:58;;;;;;;19.40;10.07;;;5.10;99.90;;;;;;4992062;28;20202;-83
2022/12/20 07:54:30;;;;;;;11.95;8.52;;;5.10;99.90;;;;;;4993028;28;20736;-82
2022/12/20 07:57:00;;;;;;;13.05;7.38;;;5.40;99.90;;;;;;4993908;28;20704;-83
2022/12/20 07:59:38;;;;;;;8.63;5.75;;;5.70;99.90;;;;;;4990977;28;20660;-80
2022/12/20 08:02:05;;;;;;;12.43;6.38;;;6.00;99.90;;;;;;4993380;28;20209;-80
2022/12/20 08:04:32;;;;;;;8.85;5.10;;;6.70;99.90;;;;;;4994162;28;20968;-83
2022/12/20 08:06:59;;;;;;;12.68;7.10;;;6.70;99.90;;;;;;4992044;28;20178;-83
2022/12/20 08:09:28;;;;;;;17.05;9.30;;;7.00;99.90;;;;;;5003188;28;20187;-79
2022/12/20 08:11:53;;;;;;;15.52;9.73;;;6.70;99.90;;;;;;5013474;28;20239;-80
2022/12/20 08:14:19;;;;;;;12.93;8.50;;;;;;;;;;4998054;28;20747;-83
2022/12/20 08:16:45;;;;;;;8.50;7.07;;;6.40;99.90;;;;;;5013144;28;20233;-82
2022/12/20 08:19:11;;;;;;;12.73;7.00;;;6.40;99.90;;;;;;5015623;28;20793;-81
2022/12/20 08:21:37;;;;;;;7.43;4.60;;;6.60;99.90;;;;;;4995984;28;20233;-80
2022/12/20 08:24:02;;;;;;;8.73;5.90;;;6.80;99.90;;;;;;5005052;28;20179;-86
2022/12/20 08:26:28;;;;;;;11.87;8.63;;;;;;;;;;5001744;28;20205;-86
2022/12/20 08:28:54;;;;;;;13.20;9.40;;;7.20;99.90;;;;;;4997494;28;20186;-80
2022/12/20 08:31:21;;;;;;;13.85;8.27;;;;;;;;;;4995735;28;20520;-84
2022/12/20 08:33:47;;;;;;;15.60;9.50;;;;;;;;;;5003774;28;20182;-82
2022/12/20 08:36:13;;;;;;;7.70;5.50;;;6.70;99.90;;;;;;5001087;28;20186;-79
2022/12/20 08:38:39;;;;;;;13.80;5.00;;;7.00;99.90;;;;;;5021611;28;20452;-84
2022/12/20 08:41:07;;;;;;;8.48;5.28;;;7.50;99.90;;;;;;4995595;28;20203;-82
2022/12/20 08:43:33;;;;;;;10.88;7.28;;;7.50;99.90;;;;;;5002044;28;20191;-79
2022/12/20 08:45:59;;;;;;;8.98;5.93;;;7.90;99.90;;;;;;5018926;28;20222;-85
2022/12/20 08:48:25;;;;;;;5.22;4.70;;;8.20;99.90;;;;;;4996843;28;20183;-84
2022/12/20 08:50:55;;;;;;;7.55;3.60;;;8.30;99.90;;;;;;4997549;28;20214;-81
2022/12/20 08:53:21;;;;;;;8.88;4.57;;;8.40;99.90;;;;;;4998943;28;20286;-84
2022/12/20 08:55:47;;;;;;;6.55;4.10;;;8.50;99.90;;;;;;4998218;28;20190;-81
2022/12/20 08:58:12;;;;;;;10.80;4.60;;;8.70;99.90;;;;;;5020737;28;20563;-85
2022/12/20 09:00:39;;;;;;;9.30;5.90;;;;;;;;;;4997516;28;20656;-83
2022/12/20 09:03:06;;;;;;;6.32;4.88;;;9.20;99.90;;;;;;4998539;28;20187;-82
2022/12/20 09:05:31;;;;;;;6.30;3.50;;;9.50;99.90;;;;;;5018767;28;20183;-83
2022/12/20 09:07:57;;;;;;;7.67;4.53;;;;;;;;;;4998681;28;20691;-81
2022/12/20 09:10:23;;;;;;;8.70;5.00;;;9.70;99.90;;;;;;4998836;28;20225;-84
2022/12/20 09:12:48;;;;;;;6.40;4.00;;;9.90;99.90;;;;;;4998712;28;21030;-82
2022/12/20 09:15:14;;;;;;;11.20;6.33;;;10.00;99.90;;;;;;4996299;28;20677;-83
2022/12/20 09:17:40;;;;;;;8.20;6.37;;;;;;;;;;4998092;28;20706;-83
2022/12/20 09:20:06;;;;;;;16.17;7.07;;;10.40;99.90;;;;;;5005237;28;20692;-82
2022/12/20 09:22:32;;;;;;;13.13;7.50;;;;;;;;;;4997726;28;20444;-82
2022/12/20 09:24:58;;;;;;;9.77;6.43;;;;;;;;;;4999189;28;20178;-81
2022/12/20 09:27:23;;;;;;;36.27;21.87;;;10.60;99.90;;;;;;4998558;28;21020;-82
2022/12/20 09:29:49;;;;;;;11.33;8.77;;;;;;;;;;4998999;28;20942;-81
2022/12/20 09:32:15;;;;;;;13.37;6.40;;;;;;;;;;4998423;28;20274;-80
2022/12/20 09:34:41;;;;;;;7.47;4.20;;;10.40;99.90;;;;;;4997822;28;20521;-80
2022/12/20 09:37:06;;;;;;;11.23;5.87;;;10.30;99.90;;;;;;5017895;28;20489;-79
2022/12/20 09:39:32;;;;;;;14.93;8.10;;;10.40;99.90;;;;;;5018279;28;20904;-81
2022/12/20 09:41:58;;;;;;;8.30;5.23;;;;;;;;;;4996625;28;20210;-81
2022/12/20 09:44:24;;;;;;;10.07;6.22;;;;;;;;;;5003240;28;20183;-81
2022/12/20 09:46:57;;;;;;;11.07;6.40;;;10.20;99.90;;;;;;4999699;28;20595;-82
2022/12/20 09:49:29;;;;;;;7.68;5.47;;;10.20;99.90;;;;;;4998457;28;20425;-81
2022/12/20 09:52:00;;;;;;;10.60;4.25;;;10.30;99.90;;;;;;5001128;28;20249;-81
2022/12/20 09:54:55;;;;;;;9.68;4.88;;;10.50;99.90;;;;;;5008102;28;20168;-79
2022/12/20 09:57:44;;;;;;;9.85;5.75;;;10.50;99.90;;;;;;4987596;28;20222;-82
2022/12/20 10:00:13;;;;;;;9.30;6.00;;;10.50;99.90;;;;;;5004986;28;20253;-83
2022/12/20 10:02:39;;;;;;;7.45;5.40;;;10.20;99.90;;;;;;5001629;28;20191;-81
2022/12/20 10:05:11;;;;;;;11.50;5.40;;;10.10;99.90;;;;;;5000464;28;20677;-82
2022/12/20 10:07:46;;;;;;;7.75;5.65;;;10.10;99.90;;;;;;5001282;28;20214;-84
2022/12/20 10:10:40;;;;;;;10.68;5.65;;;10.00;99.90;;;;;;4999382;28;20245;-80
2022/12/20 10:13:12;;;;;;;8.13;4.93;;;9.90;99.90;;;;;;5005207;28;20191;-80
2022/12/20 10:16:09;;;;;;;15.27;9.90;;;9.60;99.90;;;;;;5008330;28;20218;-83
2022/12/20 10:19:05;;;;;;;9.57;6.05;;;9.30;99.90;;;;;;4998852;28;20182;-84
2022/12/20 10:21:36;;;;;;;13.23;6.60;;;9.30;99.90;;;;;;4989757;28;20218;-79
2022/12/20 10:24:10;;;;;;;7.35;4.78;;;9.30;99.90;;;;;;4998093;28;20179;-80
2022/12/20 10:26:36;;;;;;;9.48;6.72;;;9.50;99.90;;;;;;4992061;28;20201;-85
2022/12/20 10:29:02;;;;;;;12.17;7.20;;;;;;;;;;4992147;28;20251;-78
2022/12/20 10:31:28;;;;;;;11.27;7.10;;;;;;;;;;5001053;28;20214;-82
2022/12/20 10:33:54;;;;;;;13.60;7.70;;;;;;;;;;4998833;28;20726;-84
2022/12/20 10:36:28;;;;;;;6.93;5.03;;;9.40;99.90;;;;;;5012594;28;20464;-84
2022/12/20 10:39:08;;;;;;;10.98;6.10;;;9.60;99.90;;;;;;4994606;28;20190;-83
2022/12/20 10:41:39;;;;;;;9.45;5.68;;;9.80;99.90;;;;;;4996828;28;20294;-84
2022/12/20 10:44:26;;;;;;;106.82;73.60;;;10.00;99.90;;;;;;4993730;28;20183;-81
2022/12/20 10:46:57;;;;;;;12.93;9.85;;;10.20;99.90;;;;;;5009091;28;20210;-85
2022/12/20 10:49:32;;;;;;;7.70;6.18;;;10.30;99.90;;;;;;4992211;28;20681;-80
2022/12/20 10:52:10;;;;;;;14.45;8.70;;;10.50;99.90;;;;;;5003191;28;20263;-84
2022/12/20 10:54:43;;;;;;;31.23;18.48;;;10.50;99.90;;;;;;4993096;28;20187;-79
2022/12/20 10:57:19;;;;;;;22.00;10.43;;;10.60;99.90;;;;;;4999479;28;20199;-83
2022/12/20 10:59:49;;;;;;;15.75;7.50;;;10.70;99.90;;;;;;4991147;28;20182;-81
2022/12/20 11:02:26;;;;;;;10.57;7.03;;;10.70;99.90;;;;;;5000838;28;20185;-81
2022/12/20 11:05:00;;;;;;;21.40;11.95;;;10.80;99.90;;;;;;4996109;28;20198;-81
2022/12/20 11:07:32;;;;;;;10.93;6.40;;;11.00;99.90;;;;;;4996515;28;20190;-78
2022/12/20 11:10:18;;;;;;;10.52;7.30;;;10.40;99.90;;;;;;5018505;28;20194;-81
2022/12/20 11:12:54;;;;;;;11.05;6.72;;;10.30;99.90;;;;;;5002695;28;20181;-78
2022/12/20 11:15:25;;;;;;;15.15;7.13;;;9.80;99.90;;;;;;4997638;28;20286;-77
2022/12/20 11:17:58;;;;;;;10.60;7.25;;;9.60;99.90;;;;;;4993863;28;20218;-83
2022/12/20 11:21:07;;;;;;;11.02;7.70;;;9.90;99.90;;;;;;4991458;28;20230;-84
2022/12/20 11:23:55;;;;;;;14.23;6.88;;;9.80;99.90;;;;;;4966925;28;20193;-83
2022/12/20 11:26:37;;;;;;;11.05;7.28;;;9.70;99.90;;;;;;4983557;28;20213;-83
2022/12/20 11:29:31;;;;;;;13.30;8.20;;;9.90;99.90;;;;;;4994853;28;20198;-81
2022/12/20 11:32:02;;;;;;;13.20;7.78;;;9.50;99.90;;;;;;4989960;28;20206;-81
2022/12/20 11:34:35;;;;;;;9.82;7.25;;;9.50;99.90;;;;;;4988663;28;20193;-81
2022/12/20 11:37:16;;;;;;;12.35;7.32;;;9.50;99.90;;;;;;4994624;28;20331;-83
2022/12/20 11:39:44;;;;;;;18.40;8.93;;;9.30;99.90;;;;;;4995851;28;20362;-79
2022/12/20 11:42:29;;;;;;;12.27;7.97;;;9.20;99.90;;;;;;5013098;28;20179;-77
2022/12/20 11:45:14;;;;;;;15.48;8.40;;;9.30;99.90;;;;;;4999496;28;20252;-82
2022/12/20 11:47:48;;;;;;;11.98;7.88;;;9.10;99.90;;;;;;5009928;28;20735;-82
2022/12/20 11:50:35;;;;;;;14.85;9.65;;;9.00;99.90;;;;;;4999218;28;20206;-77
2022/12/20 11:53:30;;;;;;;11.88;7.82;;;8.90;99.90;;;;;;4995978;28;20182;-82
2022/12/20 11:56:00;;;;;;;11.27;8.02;;;8.90;99.90;;;;;;4995010;28;20187;-82
2022/12/20 11:58:57;;;;;;;12.25;8.45;;;8.90;99.90;;;;;;5003851;28;20213;-79
2022/12/20 12:02:08;;;;;;;14.30;8.13;;;8.80;99.90;;;;;;4994453;28;20214;-82
2022/12/20 12:04:49;;;;;;;12.13;8.05;;;8.70;99.90;;;;;;4986329;28;20202;-82
2022/12/20 12:07:21;;;;;;;12.15;7.68;;;8.70;99.90;;;;;;4993617;28;20186;-80
2022/12/20 12:10:15;;;;;;;13.13;7.68;;;8.70;99.90;;;;;;5012481;28;20249;-82
2022/12/20 12:12:47;;;;;;;7.68;6.25;;;8.70;99.90;;;;;;5000381;28;20198;-83
2022/12/20 12:15:47;;;;;;;15.18;8.35;;;8.70;99.90;;;;;;4994623;28;20542;-83
2022/12/20 12:18:27;;;;;;;13.20;7.93;;;8.80;99.90;;;;;;5008321;28;20202;-80
2022/12/20 12:21:27;;;;;;;12.60;7.40;;;8.90;99.90;;;;;;5033782;28;20206;-78
2022/12/20 12:23:58;;;;;;;10.43;7.00;;;8.90;99.90;;;;;;5004173;28;20179;-79
2022/12/20 12:26:28;;;;;;;7.65;5.00;;;8.80;99.90;;;;;;5005712;28;20179;-77
2022/12/20 12:28:57;;;;;;;10.98;7.20;;;8.70;99.90;;;;;;5020470;28;20202;-81
2022/12/20 12:31:38;;;;;;;11.75;7.22;;;8.70;99.90;;;;;;4992572;28;20222;-80
2022/12/20 12:34:31;;;;;;;13.85;6.35;;;8.80;99.90;;;;;;4996837;28;21798;-82
2022/12/20 12:37:18;;;;;;;13.00;7.10;;;8.80;99.90;;;;;;5001763;28;20198;-82
2022/12/20 12:39:57;;;;;;;10.35;6.88;;;8.90;99.90;;;;;;4998254;28;20178;-81
2022/12/20 12:43:01;;;;;;;9.20;6.25;;;9.20;99.90;;;;;;5003217;28;20191;-79
2022/12/20 12:45:33;;;;;;;12.18;7.07;;;9.20;99.90;;;;;;4996195;28;20182;-80
2022/12/20 12:48:12;;;;;;;14.05;6.43;;;9.40;99.90;;;;;;5003961;28;20195;-83
2022/12/20 12:50:44;;;;;;;62.38;29.23;;;9.60;99.90;;;;;;4996674;28;20764;-80
2022/12/20 12:53:39;;;;;;;5.22;3.80;;;9.80;99.90;;;;;;5011020;28;20694;-81
2022/12/20 12:56:26;;;;;;;5.00;3.70;;;10.00;99.90;;;;;;5012388;28;20274;-83
2022/12/20 12:59:04;;;;;;;9.52;4.30;;;10.20;99.90;;;;;;4996458;28;20196;-79
2022/12/20 13:01:50;;;;;;;5.05;2.75;;;10.20;99.90;;;;;;4990734;28;20762;-78
2022/12/20 13:04:18;;;;;;;5.65;3.50;;;10.30;99.90;;;;;;4993379;28;20198;-81
2022/12/20 13:06:47;;;;;;;7.93;3.08;;;10.60;99.90;;;;;;4989579;28;20305;-81
2022/12/20 13:09:21;;;;;;;6.95;4.07;;;10.70;99.90;;;;;;4992378;28;20266;-81
2022/12/20 13:11:47;;;;;;;8.63;3.30;;;10.90;99.90;;;;;;4996200;28;20199;-79
2022/12/20 13:14:16;;;;;;;5.72;3.67;;;10.90;99.90;;;;;;4991337;28;20595;-80
2022/12/20 13:16:42;;;;;;;8.15;3.70;;;;;;;;;;5002884;28;20257;-81
2022/12/20 13:19:16;;;;;;;6.80;3.78;;;10.90;99.90;;;;;;4997729;28;20190;-82
2022/12/20 13:21:47;;;;;;;5.40;3.78;;;10.70;99.90;;;;;;5001515;28;20218;-80
2022/12/20 13:24:49;;;;;;;9.65;4.25;;;10.70;99.90;;;;;;4995432;28;20257;-83